createdAt,value
2023-04-27T00:00:49.543Z,29.3
2023-04-27T00:06:44.112Z,29.3
2023-04-27T00:12:35.783Z,29.2
2023-04-27T00:18:27.101Z,29.2
2023-04-27T00:24:18.745Z,29.2
2023-04-27T00:29:54.976Z,29.1
2023-04-27T00:35:46.080Z,29.1
2023-04-27T00:41:37.052Z,29.1
2023-04-27T00:47:30.217Z,29.1
2023-04-27T00:53:21.322Z,29.1
2023-04-27T00:59:12.760Z,29.1
2023-04-27T01:04:51.153Z,29.1
2023-04-27T01:10:42.404Z,29.1
2023-04-27T01:16:34.244Z,29
2023-04-27T01:22:26.465Z,29
2023-04-27T01:28:19.601Z,29
2023-04-27T01:34:11.952Z,28.9
2023-04-27T01:40:03.874Z,28.9
2023-04-27T01:45:55.571Z,28.9
2023-04-27T01:51:47.031Z,28.9
2023-04-27T01:57:38.354Z,28.9
2023-04-27T02:03:29.838Z,28.9
2023-04-27T02:09:07.063Z,28.9
2023-04-27T02:14:43.797Z,28.8
2023-04-27T02:20:35.511Z,28.8
2023-04-27T02:26:27.100Z,28.8
2023-04-27T02:32:24.457Z,28.8
2023-04-27T02:38:16.068Z,28.8
2023-04-27T02:44:06.837Z,28.8
2023-04-27T02:49:43.573Z,28.8
2023-04-27T02:55:34.913Z,28.8
2023-04-27T03:01:27.162Z,28.7
2023-04-27T03:07:20.993Z,28.7
2023-04-27T03:13:15.133Z,28.7
2023-04-27T03:19:06.780Z,28.7
2023-04-27T03:24:58.248Z,28.6
2023-04-27T03:30:34.103Z,28.6
2023-04-27T03:36:10.608Z,28.6
2023-04-27T03:41:46.908Z,28.6
2023-04-27T03:47:38.655Z,28.6
2023-04-27T03:53:29.412Z,28.6
2023-04-27T03:59:21.334Z,28.6
2023-04-27T04:05:15.268Z,28.6
2023-04-27T04:11:06.082Z,28.5
2023-04-27T04:16:57.689Z,28.5
2023-04-27T04:22:48.688Z,28.5
2023-04-27T04:28:40.795Z,28.4
2023-04-27T04:34:17.840Z,28.4
2023-04-27T04:39:53.896Z,28.4
2023-04-27T04:45:32.860Z,28.4
2023-04-27T04:51:27.555Z,28.4
2023-04-27T04:57:18.624Z,28.4
2023-04-27T05:03:13.333Z,28.4
2023-04-27T05:09:09.742Z,28.4
2023-04-27T05:15:02.447Z,28.4
2023-04-27T05:20:55.297Z,28.3
2023-04-27T05:26:31.943Z,28.3
2023-04-27T05:32:23.642Z,28.3
2023-04-27T05:37:59.420Z,28.3
2023-04-27T05:43:20.377Z,28.3
2023-04-27T05:48:57.350Z,28.3
2023-04-27T05:54:33.828Z,28.3
2023-04-27T06:00:19.120Z,28.3
2023-04-27T06:05:58.831Z,28.2
2023-04-27T06:11:35.001Z,28.2
2023-04-27T06:17:11.328Z,28.1
2023-04-27T06:22:47.959Z,28.1
2023-04-27T06:28:39.804Z,28.1
2023-04-27T06:34:31.941Z,28.1
2023-04-27T06:40:24.846Z,28.1
2023-04-27T06:46:16.895Z,28.1
2023-04-27T06:52:08.983Z,28.1
2023-04-27T06:58:02.959Z,28.1
2023-04-27T07:03:55.327Z,28.1
2023-04-27T07:09:59.914Z,28
2023-04-27T07:15:51.133Z,28
2023-04-27T07:21:42.375Z,28
2023-04-27T07:27:35.977Z,28
2023-04-27T07:33:40.631Z,28
2023-04-27T07:39:48.190Z,27.9
2023-04-27T07:45:39.795Z,27.9
2023-04-27T07:51:31.482Z,27.9
2023-04-27T07:57:23.171Z,27.9
2023-04-27T08:03:30.619Z,27.9
2023-04-27T08:09:19.330Z,27.9
2023-04-27T08:14:55.230Z,27.9
2023-04-27T08:46:42.888Z,27.8
2023-04-27T08:52:29.275Z,27.8
2023-04-27T08:58:23.396Z,27.8
2023-04-27T09:04:17.542Z,27.8
2023-04-27T09:10:22.176Z,27.7
2023-04-27T09:16:13.071Z,27.7
2023-04-27T09:21:33.692Z,27.7
2023-04-27T09:27:09.921Z,27.7
2023-04-27T09:33:02.440Z,27.6
2023-04-27T09:38:53.414Z,27.6
2023-04-27T09:44:46.890Z,27.6
2023-04-27T09:50:23.329Z,27.6
2023-04-27T09:56:14.016Z,27.6
2023-04-27T10:02:23.288Z,27.6
2023-04-27T10:08:28.350Z,27.6
2023-04-27T10:14:19.381Z,27.6
2023-04-27T10:20:14.232Z,27.6
2023-04-27T10:26:05.337Z,27.5
2023-04-27T10:31:58.350Z,27.5
2023-04-27T10:37:49.786Z,27.5
2023-04-27T10:43:56.884Z,27.5
2023-04-27T10:49:47.893Z,27.4
2023-04-27T10:55:24.453Z,27.4
2023-04-27T11:01:24.357Z,27.4
2023-04-27T11:07:03.558Z,27.4
2023-04-27T11:12:39.478Z,27.4
2023-04-27T11:18:30.864Z,27.4
2023-04-27T11:24:22.146Z,27.4
2023-04-27T11:30:14.202Z,27.4
2023-04-27T11:35:53.346Z,27.3
2023-04-27T11:41:28.209Z,27.3
2023-04-27T11:47:04.748Z,27.3
2023-04-27T11:52:25.867Z,27.3
2023-04-27T11:57:49.289Z,27.3
2023-04-27T12:03:18.672Z,27.3
2023-04-27T12:09:07.022Z,27.3
2023-04-27T12:14:43.317Z,27.3
2023-04-27T12:20:05.200Z,27.3
2023-04-27T12:25:56.848Z,27.2
2023-04-27T12:31:20.240Z,27.2
2023-04-27T12:37:12.844Z,27.2
2023-04-27T12:43:03.962Z,27.1
2023-04-27T12:49:24.457Z,27.1
2023-04-27T12:55:31.293Z,27.1
2023-04-27T13:01:24.084Z,27.1
2023-04-27T13:07:18.115Z,27.1
2023-04-27T13:13:09.654Z,27.1
2023-04-27T13:19:07.983Z,27.1
2023-04-27T13:25:00.010Z,27.1
2023-04-27T13:30:52.441Z,27.1
2023-04-27T13:36:58.712Z,27
2023-04-27T13:42:50.199Z,27
2023-04-27T13:54:18.983Z,27
2023-04-27T14:00:10.084Z,27
2023-04-27T14:06:04.219Z,26.9
2023-04-27T14:12:11.413Z,26.9
2023-04-27T14:18:05.217Z,26.9
2023-04-27T14:24:08.196Z,26.9
2023-04-27T14:29:59.646Z,26.9
2023-04-27T14:35:50.494Z,26.9
2023-04-27T14:41:43.114Z,26.9
2023-04-27T14:48:00.163Z,26.9
2023-04-27T14:53:51.557Z,26.9
2023-04-27T14:59:42.881Z,26.8
2023-04-27T15:05:36.328Z,26.8
2023-04-27T15:11:27.953Z,26.8
2023-04-27T15:17:20.527Z,26.8
2023-04-27T15:23:12.567Z,26.8
2023-04-27T15:29:05.984Z,26.8
2023-04-27T15:34:58.527Z,26.7
2023-04-27T15:40:49.876Z,26.6
2023-04-27T15:46:42.086Z,26.6
2023-04-27T15:52:32.109Z,26.6
2023-04-27T15:58:25.994Z,26.5
2023-04-27T16:04:19.432Z,26.4
2023-04-27T16:10:14.509Z,26.4
2023-04-27T16:15:50.775Z,26.4
2023-04-27T16:21:42.738Z,26.4
2023-04-27T16:27:34.661Z,26.3
2023-04-27T16:33:26.531Z,26.3
2023-04-27T16:39:17.628Z,26.3
2023-04-27T16:44:54.484Z,26.3
2023-04-27T16:50:47.108Z,26.3
2023-04-27T16:56:39.113Z,26.3
2023-04-27T17:02:26.118Z,26.3
2023-04-27T17:08:22.058Z,26.2
2023-04-27T17:14:13.689Z,26.2
2023-04-27T17:20:06.020Z,26.2
2023-04-27T17:26:00.885Z,26.1
2023-04-27T17:31:54.273Z,26.2
2023-04-27T17:37:49.456Z,26.1
2023-04-27T17:43:41.499Z,26.1
2023-04-27T17:49:33.140Z,26.1
2023-04-27T17:55:25.252Z,26.1
2023-04-27T18:01:02.342Z,26.1
2023-04-27T18:06:40.538Z,26.1
2023-04-27T18:12:03.839Z,26.1
2023-04-27T18:17:43.398Z,26.1
2023-04-27T18:23:49.492Z,26.1
2023-04-27T18:29:43.358Z,26.1
2023-04-27T18:35:35.935Z,26
2023-04-27T18:41:27.734Z,26
2023-04-27T18:47:19.591Z,26
2023-04-27T18:52:56.759Z,26
2023-04-27T18:58:48.700Z,25.9
2023-04-27T19:04:48.854Z,25.9
2023-04-27T19:10:54.823Z,25.9
2023-04-27T19:16:51.812Z,25.9
2023-04-27T19:22:55.108Z,25.9
2023-04-27T19:29:04.342Z,25.9
2023-04-27T19:35:01.094Z,25.8
2023-04-27T19:40:57.146Z,25.8
2023-04-27T19:46:34.548Z,25.8
2023-04-27T19:52:28.307Z,25.8
2023-04-27T19:58:21.633Z,25.8
2023-04-27T20:04:16.316Z,25.8
2023-04-27T20:10:13.060Z,25.7
2023-04-27T20:16:22.221Z,25.7
2023-04-27T20:22:02.269Z,25.7
2023-04-27T20:27:40.433Z,25.7
2023-04-27T20:33:34.025Z,25.6
2023-04-27T20:39:39.633Z,25.6
2023-04-27T20:45:33.627Z,25.6
2023-04-27T20:51:04.048Z,25.6
2023-04-27T20:57:00.540Z,25.6
2023-04-27T21:02:53.193Z,25.6
2023-04-27T21:08:46.640Z,25.6
2023-04-27T21:14:41.040Z,25.6
2023-04-27T21:20:47.116Z,25.6
2023-04-27T21:26:47.307Z,25.6
2023-04-27T21:32:42.057Z,25.6
2023-04-27T21:38:34.403Z,25.5
2023-04-27T21:44:25.773Z,25.5
2023-04-27T21:50:17.760Z,25.5
2023-04-27T21:55:54.462Z,25.5
2023-04-27T22:01:49.406Z,25.5
2023-04-27T22:07:42.696Z,25.5
2023-04-27T22:13:17.475Z,25.5
2023-04-27T22:19:09.885Z,25.4
2023-04-27T22:25:01.694Z,25.4
2023-04-27T22:31:06.856Z,25.4
2023-04-27T22:37:06.309Z,25.4
2023-04-27T22:42:57.623Z,25.4
2023-04-27T22:48:48.595Z,25.4
2023-04-27T22:54:39.191Z,25.4
2023-04-27T23:00:30.441Z,25.4
2023-04-27T23:06:23.480Z,25.4
2023-04-27T23:12:15.023Z,25.4
2023-04-27T23:18:06.816Z,25.4
2023-04-27T23:24:04.998Z,25.3
2023-04-27T23:29:56.243Z,25.4
2023-04-27T23:35:48.509Z,25.3
2023-04-27T23:41:24.046Z,25.3
2023-04-27T23:47:00.168Z,25.3
2023-04-27T23:52:51.465Z,25.3
2023-04-27T23:58:27.977Z,25.3
